Terminal Aerodrome Forecast
Issued by NWS Tuscon, AZ

Home | Current Version | Previous Version | Text Only | Print | Product List | Glossary On
Versions: 1 2 3 4 5 6 7 8 9 10 11 12 13 14 15
000
FTUS45 KTWC 192322
TAFTUS
TAF
KTUS 192322Z 2000/2024 23006KT P6SM VCSH SCT035 BKN045 BKN060
     FM200200 VRB03KT P6SM SCT040 BKN060
     FM200700 14006KT P6SM SCT060 BKN090
     FM201200 14007KT P6SM SCT100
     FM202000 32007KT P6SM FEW080=

USA.gov is the U.S. government's official web portal to all federal, state and local government web resources and services.